Airfield :
LOGIN :

Register | Disclaimer

   EN    FR    IT 

 










Legend :    VFR   Marginal VFR   IFR   Intensive IFR   Very Intensive IFR
Visi :
Ceiling :
>= 8 km
>= 3000ft
5 to 8 km
1000 to 3000 ft
1500m to 5 km
500 to 1000 ft
800 to 1500m
200 to 500 ft
< 800m
< 200 ft
Symbols :   Thunderstorms  Fog  Heavy snow  Heavy precipitations  Wind > 20 kt
SIGMETs :     Misc.  Thunderstorms  Icing  Turbulence  Mountain Waves  Volcanic Ashes






- Airport Elevation : 446 ft
- IATA code : VNE


LFRV - Vannes-Meucon

CURRENT METAR :
  • 140030Z AUTO 27003KT CAVOK 03/02 Q0993

EXPIRED METARs :
  • 140000Z AUTO 27005KT 9999 FEW033 SCT070 BKN190 03/02 Q0993
  • 132330Z AUTO 25004KT CAVOK 03/02 Q0993
  • 132300Z AUTO 24005KT 210V270 CAVOK 02/02 Q0993
  • 132230Z AUTO VRB03KT CAVOK 02/02 Q0993
  • 132200Z AUTO 25003KT 220V280 CAVOK 03/02 Q0993

TAF N/A



MET'MAP, your aeronautical weather chart ! - Copyright ORBIFLY December 2007 - Disclaimer

ORBIFLY MET'MAP TEAM :

Programming & Development : Alexandra Zaïnal
Concept & Development : Baudouin d'Aumeries
Co-Development & Prog : Marc-Olivier Méhu
Technical & hardware support : Manuel Goepfert

Contact : metmap@orbifly.com




SOURCES & CREDITS :

   NOAA